Time;durP1;ratioP1;P1;durP2;ratioP2;P2;SDS_P1;SDS_P2;PMS_P1;PMS_P2;Temp;Humidity;BMP_temperature;BMP_pressure;BME280_temperature;BME280_humidity;BME280_pressure;Samples;Min_cycle;Max_cycle;Signal;HPM_P1;HPM_P2
2021/04/19 00:01:56;;;;;;;23.35;11.20;;;;;;;7.27;100.00;102266.28;6142227;23;20016;-84
2021/04/19 00:04:22;;;;;;;25.05;11.85;;;;;;;7.17;100.00;102252.34;6167290;23;20444;-84
2021/04/19 00:06:47;;;;;;;26.20;12.00;;;;;;;7.20;100.00;102259.34;6166160;23;20084;-85
2021/04/19 00:09:13;;;;;;;31.38;13.90;;;;;;;7.21;100.00;102261.06;6139447;23;20006;-83
2021/04/19 00:11:38;;;;;;;31.58;13.75;;;;;;;7.31;100.00;102264.50;6138048;23;20002;-83
2021/04/19 00:14:04;;;;;;;28.02;12.80;;;;;;;7.23;100.00;102254.94;6137523;23;20037;-84
2021/04/19 00:16:30;;;;;;;29.70;12.68;;;;;;;7.12;100.00;102258.50;6164005;23;20007;-83
2021/04/19 00:18:55;;;;;;;29.48;11.98;;;;;;;7.10;100.00;102255.03;6138928;23;20013;-83
2021/04/19 00:21:21;;;;;;;25.50;12.85;;;;;;;7.08;100.00;102251.53;6167554;23;19990;-83
2021/04/19 00:23:46;;;;;;;32.25;13.00;;;;;;;7.07;100.00;102244.53;6172773;23;20004;-83
2021/04/19 00:26:11;;;;;;;26.67;14.10;;;;;;;7.05;100.00;102247.19;6165744;23;20011;-84
2021/04/19 00:28:37;;;;;;;26.38;13.38;;;;;;;7.08;100.00;102246.28;6139673;23;20018;-85
2021/04/19 00:31:02;;;;;;;34.25;14.32;;;;;;;7.26;100.00;102248.75;6166746;23;20012;-84
2021/04/19 00:33:29;;;;;;;22.98;12.95;;;;;;;7.12;100.00;102238.34;6142187;23;20024;-86
2021/04/19 00:35:54;;;;;;;28.42;14.23;;;;;;;7.23;100.00;102243.56;6141778;23;20005;-86
2021/04/19 00:38:19;;;;;;;33.40;12.43;;;;;;;7.22;100.00;102236.53;6141596;23;20037;-83
2021/04/19 00:40:45;;;;;;;29.70;13.85;;;;;;;7.30;100.00;102231.22;6165308;23;20013;-83
2021/04/19 00:43:11;;;;;;;25.23;12.80;;;;;;;7.17;100.00;102223.41;6163817;23;20004;-85
2021/04/19 00:45:37;;;;;;;32.33;13.00;;;;;;;7.23;100.00;102220.75;6166442;23;20060;-85
2021/04/19 00:48:04;;;;;;;30.73;14.18;;;;;;;7.27;100.00;102219.81;6166640;23;20001;-86
2021/04/19 00:50:33;;;;;;;34.17;14.02;;;;;;;7.30;100.00;102220.69;6139877;23;20005;-85
2021/04/19 00:53:01;;;;;;;25.10;13.23;;;;;;;7.36;100.00;102216.25;6143050;23;20005;-85
2021/04/19 00:55:26;;;;;;;32.25;13.70;;;;;;;7.33;100.00;102221.53;6143022;23;20002;-86
2021/04/19 00:57:52;;;;;;;29.27;15.32;;;;;;;7.30;100.00;102216.31;6169455;23;20005;-86
2021/04/19 01:00:30;;;;;;;28.00;14.50;;;;;;;7.18;100.00;102208.53;6142886;23;20435;-86
2021/04/19 01:02:56;;;;;;;36.30;14.75;;;;;;;7.15;100.00;102211.19;6150079;23;20008;-85
2021/04/19 01:05:26;;;;;;;31.67;14.93;;;;;;;7.16;100.00;102207.66;6146427;23;20013;-85
2021/04/19 01:07:52;;;;;;;30.70;14.85;;;;;;;7.09;100.00;102190.19;6149551;23;20202;-84
2021/04/19 01:10:17;;;;;;;23.10;13.57;;;;;;;6.98;100.00;102196.41;6148912;23;20013;-85
2021/04/19 01:12:43;;;;;;;24.35;13.43;;;;;;;6.89;100.00;102198.25;6141769;23;20060;-85
2021/04/19 01:15:09;;;;;;;26.67;13.80;;;;;;;6.93;100.00;102192.09;6140817;23;20017;-83
2021/04/19 01:17:34;;;;;;;31.42;14.63;;;;;;;6.87;100.00;102192.97;6165654;23;20066;-84
2021/04/19 01:19:59;;;;;;;31.45;13.18;;;;;;;6.82;100.00;102188.66;6141270;23;20009;-85
2021/04/19 01:22:25;;;;;;;27.80;13.68;;;;;;;6.93;100.00;102189.47;6166072;23;20084;-84
2021/04/19 01:24:50;;;;;;;36.90;15.50;;;;;;;6.90;100.00;102189.47;6167366;23;20005;-84
2021/04/19 01:27:16;;;;;;;33.13;15.77;;;;;;;6.98;100.00;102185.03;6166773;23;20029;-83
2021/04/19 01:29:41;;;;;;;33.40;13.25;;;;;;;7.01;100.00;102198.13;6164133;23;20017;-84
2021/04/19 01:32:07;;;;;;;25.63;14.95;;;;;;;7.01;100.00;102185.00;6164485;23;20029;-85
2021/04/19 01:34:32;;;;;;;27.38;13.55;;;;;;;7.10;100.00;102198.06;6137203;23;19998;-85
2021/04/19 01:36:58;;;;;;;27.63;12.80;;;;;;;6.99;100.00;102181.53;6137606;23;20020;-86
2021/04/19 01:39:23;;;;;;;25.67;12.88;;;;;;;6.87;100.00;102198.22;6163657;23;20006;-84
2021/04/19 01:41:49;;;;;;;27.45;14.35;;;;;;;6.83;100.00;102169.34;6164940;23;20316;-85
2021/04/19 01:44:14;;;;;;;28.10;14.27;;;;;;;6.76;100.00;102179.06;6140998;23;20309;-84
2021/04/19 01:46:41;;;;;;;25.90;13.95;;;;;;;6.85;100.00;102192.13;6140149;23;20006;-85
2021/04/19 01:49:14;;;;;;;22.25;12.60;;;;;;;6.87;100.00;102190.34;6139630;23;20040;-85
2021/04/19 01:51:40;;;;;;;23.67;14.07;;;;;;;6.86;100.00;102198.25;6141409;23;20634;-85
2021/04/19 01:54:05;;;;;;;29.13;13.23;;;;;;;6.87;100.00;102185.09;6169380;23;20024;-85
2021/04/19 01:56:31;;;;;;;20.55;13.40;;;;;;;6.83;100.00;102172.88;6118743;23;20010;-86
2021/04/19 01:58:59;;;;;;;28.38;13.80;;;;;;;6.92;100.00;102185.94;6168868;23;20025;-85
2021/04/19 02:01:24;;;;;;;26.15;15.00;;;;;;;6.87;100.00;102182.47;6107535;23;20014;-85
2021/04/19 02:03:58;;;;;;;30.25;13.93;;;;;;;6.93;100.00;102190.31;6081917;23;20076;-85
2021/04/19 02:06:42;;;;;;;28.08;13.25;;;;;;;6.92;100.00;102182.44;6081373;23;20015;-85
2021/04/19 02:09:25;;;;;;;29.23;13.95;;;;;;;6.95;100.00;102174.53;6105127;23;20082;-85
2021/04/19 02:12:08;;;;;;;27.13;14.07;;;;;;;7.00;100.00;102191.13;6080442;23;20010;-84
2021/04/19 02:14:51;;;;;;;30.60;15.93;;;;;;;6.97;100.00;102192.03;6109783;23;20011;-85
2021/04/19 02:17:32;;;;;;;26.33;14.57;;;;;;;6.88;100.00;102184.22;6118115;23;19994;-86
2021/04/19 02:20:12;;;;;;;27.98;14.52;;;;;;;6.85;100.00;102186.00;6109892;23;20006;-85
2021/04/19 02:22:45;;;;;;;28.98;15.93;;;;;;;6.81;100.00;102184.28;6082553;23;20010;-85
2021/04/19 02:25:25;;;;;;;29.48;17.08;;;;;;;6.80;100.00;102179.91;6106214;23;20043;-85
2021/04/19 02:28:05;;;;;;;31.13;16.13;;;;;;;6.71;100.00;102175.59;6081784;23;20070;-84
2021/04/19 02:30:34;;;;;;;43.28;18.35;;;;;;;6.79;100.00;102180.81;6081400;23;20014;-86
2021/04/19 02:33:03;;;;;;;38.78;19.13;;;;;;;6.71;100.00;102183.47;6101825;23;20010;-84
2021/04/19 02:35:32;;;;;;;36.47;18.52;;;;;;;6.65;100.00;102181.75;6110215;23;20002;-84
2021/04/19 02:37:58;;;;;;;33.95;18.02;;;;;;;6.56;100.00;102184.44;6136199;23;20065;-84
2021/04/19 02:40:26;;;;;;;36.42;19.33;;;;;;;6.62;100.00;102183.53;6109729;23;20439;-84
2021/04/19 02:42:54;;;;;;;37.60;19.77;;;;;;;6.58;100.00;102185.31;6140533;23;19994;-84
2021/04/19 02:45:21;;;;;;;36.72;19.95;;;;;;;6.63;100.00;102194.03;6140392;23;20002;-83
2021/04/19 02:47:47;;;;;;;34.25;19.33;;;;;;;6.52;100.00;102184.47;6139628;23;20072;-84
2021/04/19 02:50:18;;;;;;;39.40;20.90;;;;;;;6.55;100.00;102179.22;6141594;23;20009;-83
2021/04/19 02:52:45;;;;;;;46.97;20.02;;;;;;;6.48;100.00;102188.88;6138927;23;20025;-83
2021/04/19 02:55:12;;;;;;;41.80;21.05;;;;;;;6.43;100.00;102182.78;6138632;23;20041;-83
2021/04/19 02:57:48;;;;;;;41.67;20.73;;;;;;;6.37;100.00;102186.31;6111446;23;20005;-83
2021/04/19 03:00:17;;;;;;;34.90;19.67;;;;;;;6.47;100.00;102187.13;6135673;23;20002;-83
2021/04/19 03:02:43;;;;;;;40.55;20.08;;;;;;;6.42;100.00;102192.41;6134273;23;20006;-83
2021/04/19 03:05:13;;;;;;;40.58;22.02;;;;;;;6.29;100.00;102180.25;6109355;23;20021;-83
2021/04/19 03:07:48;;;;;;;34.33;19.60;;;;;;;6.30;100.00;102186.34;6135434;23;20016;-82
2021/04/19 03:10:18;;;;;;;39.60;20.55;;;;;;;6.14;100.00;102181.19;6109072;23;20009;-82
2021/04/19 03:12:54;;;;;;;44.53;24.13;;;;;;;6.27;100.00;102187.22;6137336;23;20013;-83
2021/04/19 03:15:25;;;;;;;45.85;23.40;;;;;;;6.09;100.00;102187.34;6135702;23;20418;-82
2021/04/19 03:17:56;;;;;;;38.35;22.05;;;;;;;6.09;100.00;102179.47;6110276;23;20013;-82
2021/04/19 03:20:24;;;;;;;52.17;24.42;;;;;;;6.09;100.00;102187.34;6135927;23;20006;-82
2021/04/19 03:22:51;;;;;;;48.53;24.15;;;;;;;6.12;100.00;102176.81;6134740;23;19998;-82
2021/04/19 03:25:18;;;;;;;49.25;25.13;;;;;;;6.04;100.00;102178.63;6135195;23;20013;-82
2021/04/19 03:27:47;;;;;;;44.80;25.55;;;;;;;5.92;100.00;102174.28;6135384;23;20029;-82
2021/04/19 03:30:14;;;;;;;56.97;29.15;;;;;;;5.92;100.00;102167.31;6157418;23;20105;-83
2021/04/19 03:32:46;;;;;;;57.10;29.48;;;;;;;6.01;100.00;102163.75;6140309;23;19997;-84
2021/04/19 03:35:16;;;;;;;57.70;30.73;;;;;;;5.91;100.00;102168.16;6141732;23;20013;-84
2021/04/19 03:37:45;;;;;;;54.40;29.33;;;;;;;5.81;100.00;102166.41;6167510;23;20001;-84
2021/04/19 03:40:24;;;;;;;57.90;29.73;;;;;;;5.94;100.00;102164.66;6140542;23;20009;-84
2021/04/19 03:42:53;;;;;;;60.00;31.63;;;;;;;5.87;100.00;102161.16;6141429;23;20001;-83
2021/04/19 03:45:20;;;;;;;55.83;31.75;;;;;;;5.72;100.00;102164.72;6141405;23;20029;-84
2021/04/19 03:47:47;;;;;;;66.50;33.38;;;;;;;5.85;100.00;102165.53;6167226;23;20005;-84
2021/04/19 03:50:13;;;;;;;61.72;33.10;;;;;;;5.87;100.00;102161.16;6141248;23;20005;-84
2021/04/19 03:52:49;;;;;;;65.65;31.92;;;;;;;5.78;100.00;102170.81;6167353;23;20450;-83
2021/04/19 03:55:15;;;;;;;63.53;33.53;;;;;;;5.76;100.00;102162.06;6170639;23;20037;-83
2021/04/19 03:57:46;;;;;;;73.78;35.40;;;;;;;5.82;100.00;102164.66;6169379;23;20005;-84
2021/04/19 04:00:17;;;;;;;59.47;33.63;;;;;;;5.74;100.00;102154.22;6142351;23;20005;-83
2021/04/19 04:02:47;;;;;;;65.72;34.67;;;;;;;5.67;100.00;102160.31;6141599;23;19997;-84
2021/04/19 04:05:13;;;;;;;68.72;36.03;;;;;;;5.82;100.00;102156.78;6170507;23;20028;-84
2021/04/19 04:07:40;;;;;;;70.35;36.28;;;;;;;5.79;100.00;102149.81;6144284;23;20065;-83
2021/04/19 04:10:07;;;;;;;71.05;37.45;;;;;;;5.78;100.00;102155.94;6143634;23;20012;-83
2021/04/19 04:12:35;;;;;;;62.47;36.30;;;;;;;5.78;100.00;102149.81;6165081;23;20020;-85
2021/04/19 04:15:00;;;;;;;75.65;37.13;;;;;;;5.78;100.00;102152.44;6138568;23;20001;-83
2021/04/19 04:17:25;;;;;;;71.35;35.20;;;;;;;5.70;100.00;102157.72;6164648;23;20398;-82
2021/04/19 04:19:51;;;;;;;62.80;35.00;;;;;;;5.75;100.00;102147.19;6164123;23;20029;-86
2021/04/19 04:22:17;;;;;;;60.72;34.50;;;;;;;5.64;100.00;102160.34;6168926;23;20013;-86
2021/04/19 04:24:44;;;;;;;59.20;32.88;;;;;;;5.55;100.00;102163.00;6169394;23;20029;-85
2021/04/19 04:27:09;;;;;;;63.00;34.38;;;;;;;5.59;100.00;102159.50;6143591;23;20002;-83
2021/04/19 04:29:35;;;;;;;61.90;34.47;;;;;;;5.53;100.00;102162.16;6142023;23;20018;-84
2021/04/19 04:32:01;;;;;;;65.05;35.53;;;;;;;5.50;100.00;102151.66;6139700;23;20537;-84
2021/04/19 04:34:26;;;;;;;61.97;36.13;;;;;;;5.44;100.00;102140.31;6165193;23;20085;-84
2021/04/19 04:36:51;;;;;;;70.03;35.95;;;;;;;5.66;100.00;102155.97;6139258;23;20100;-84
2021/04/19 04:39:17;;;;;;;77.47;37.58;;;;;;;5.62;100.00;102154.22;6139084;23;20010;-84
2021/04/19 04:41:42;;;;;;;69.63;38.25;;;;;;;5.51;100.00;102141.16;6165164;23;20012;-85
2021/04/19 04:44:24;;;;;;;69.22;37.20;;;;;;;5.48;100.00;102158.66;6139002;23;20010;-82
2021/04/19 04:47:28;;;;;;;65.65;37.08;;;;;;;5.38;100.00;102158.69;6139087;23;20010;-85
2021/04/19 04:50:17;;;;;;;70.05;38.20;;;;;;;5.37;100.00;102151.69;6164822;23;19997;-83
2021/04/19 04:53:04;;;;;;;73.18;36.67;;;;;;;5.36;100.00;102156.91;6139713;23;20013;-84
2021/04/19 04:55:32;;;;;;;70.97;37.85;;;;;;;5.43;100.00;102156.91;6141447;23;20067;-85
2021/04/19 04:57:59;;;;;;;69.25;37.75;;;;;;;5.36;100.00;102149.91;6140356;23;20010;-84
2021/04/19 05:00:25;;;;;;;75.68;39.55;;;;;;;5.44;100.00;102149.91;6139497;23;20002;-85
2021/04/19 05:02:55;;;;;;;72.72;39.42;;;;;;;5.48;100.00;102150.78;6144526;23;20082;-85
2021/04/19 05:05:23;;;;;;;82.65;41.40;;;;;;;5.58;100.00;102126.28;6175050;23;19985;-85
2021/04/19 05:07:49;;;;;;;72.20;39.45;;;;;;;5.50;100.00;102143.78;6146322;23;20044;-85
2021/04/19 05:10:15;;;;;;;76.88;38.70;;;;;;;5.82;100.00;102143.66;6166044;23;20033;-85
2021/04/19 05:12:41;;;;;;;65.05;36.92;;;;;;;5.95;100.00;102156.78;6163725;23;20006;-84
2021/04/19 05:15:12;;;;;;;68.35;36.88;;;;;;;5.97;100.00;102141.00;6163919;23;20005;-83
2021/04/19 05:17:39;;;;;;;65.32;35.03;;;;;;;6.05;100.00;102148.84;6163756;23;20012;-83
2021/04/19 05:20:06;;;;;;;66.70;37.65;;;;;;;6.00;100.00;102151.50;6162261;23;20001;-84
2021/04/19 05:22:31;;;;;;;78.80;38.78;;;;;;;5.94;100.00;102151.53;6135508;23;20055;-85
2021/04/19 05:24:57;;;;;;;77.70;38.53;;;;;;;5.93;100.00;102147.19;6138269;23;20005;-84
2021/04/19 05:27:22;;;;;;;63.10;36.75;;;;;;;5.85;100.00;102141.03;6138627;23;20100;-85
2021/04/19 05:29:48;;;;;;;78.20;38.67;;;;;;;5.92;100.00;102141.06;6137729;23;20515;-84
2021/04/19 05:32:15;;;;;;;74.97;37.17;;;;;;;5.92;100.00;102137.53;6164877;23;20084;-84
2021/04/19 05:34:40;;;;;;;64.18;35.58;;;;;;;5.89;100.00;102132.28;6136777;23;20001;-84
2021/04/19 05:37:07;;;;;;;79.00;38.13;;;;;;;5.90;100.00;102157.63;6139818;23;20297;-84
2021/04/19 05:39:33;;;;;;;70.40;38.55;;;;;;;5.95;100.00;102146.28;6138672;23;20021;-84
2021/04/19 05:42:03;;;;;;;74.38;37.00;;;;;;;6.07;100.00;102154.97;6164531;23;20006;-84
2021/04/19 05:44:30;;;;;;;73.30;37.30;;;;;;;6.07;100.00;102144.47;6137779;23;19994;-84
2021/04/19 05:46:57;;;;;;;74.43;35.92;;;;;;;6.05;100.00;102148.84;6137660;23;20006;-84
2021/04/19 05:49:22;;;;;;;75.25;36.83;;;;;;;6.07;100.00;102153.22;6165894;23;20016;-84
2021/04/19 05:51:49;;;;;;;72.30;37.80;;;;;;;6.11;100.00;102164.56;6141402;23;20014;-84
2021/04/19 05:54:17;;;;;;;81.45;36.55;;;;;;;6.19;100.00;102168.03;6142909;23;20062;-84
2021/04/19 05:57:09;;;;;;;68.78;34.75;;;;;;;6.31;100.00;102167.09;6167922;23;20420;-84
2021/04/19 05:59:45;;;;;;;68.00;35.55;;;;;;;6.16;100.00;102171.53;6167801;23;20065;-84
2021/04/19 06:02:14;;;;;;;61.03;33.20;;;;;;;6.31;100.00;102161.84;6140272;23;20009;-84
2021/04/19 06:04:48;;;;;;;72.88;36.33;;;;;;;6.28;100.00;102169.75;6138952;23;19997;-84
2021/04/19 06:07:25;;;;;;;74.80;37.10;;;;;;;6.19;100.00;102157.53;6165486;23;20009;-83
2021/04/19 06:10:45;;;;;;;77.55;37.63;;;;;;;6.34;100.00;102161.84;6164323;23;20061;-82
2021/04/19 06:13:13;;;;;;;70.45;35.75;;;;;;;6.39;100.00;102170.56;6053720;23;20007;-84
2021/04/19 06:15:40;;;;;;;66.82;34.38;;;;;;;6.58;100.00;102166.06;6056703;23;20006;-85
2021/04/19 06:18:07;;;;;;;70.47;36.42;;;;;;;6.62;100.00;102160.75;6123864;23;20017;-85
2021/04/19 06:20:35;;;;;;;70.82;35.42;;;;;;;6.74;100.00;102163.31;6118718;23;20029;-83
2021/04/19 06:23:17;;;;;;;63.63;33.10;;;;;;;6.87;100.00;102153.56;6159315;23;20474;-83
2021/04/19 06:26:43;;;;;;;72.40;36.28;;;;;;;6.87;100.00;102153.56;6166782;23;20024;-86
2021/04/19 06:29:09;;;;;;;64.97;32.75;;;;;;;7.00;100.00;102164.84;6024128;23;20035;-86
2021/04/19 06:31:39;;;;;;;67.15;32.78;;;;;;;7.00;100.00;102139.44;6023253;23;20331;-83
2021/04/19 06:34:15;;;;;;;70.93;33.05;;;;;;;7.16;100.00;102157.69;6044684;23;20018;-84
2021/04/19 06:36:57;;;;;;;63.80;33.70;;;;;;;7.21;100.00;102162.03;6023237;23;20071;-84
2021/04/19 06:40:19;;;;;;;58.50;30.60;;;;;;;7.30;100.00;102150.56;6047971;23;20007;-86
2021/04/19 06:45:57;;;;;;;56.05;28.67;;;;;;;7.38;100.00;102135.56;6128522;23;20022;-89
2021/04/19 06:48:22;;;;;;;60.47;30.83;;;;;;;7.37;100.00;102146.97;6140928;23;20032;-84
2021/04/19 06:50:48;;;;;;;62.20;28.95;;;;;;;7.35;100.00;102138.22;6111275;23;20010;-82
2021/04/19 06:53:14;;;;;;;45.38;25.23;;;;;;;7.35;100.00;102153.13;6135436;23;20010;-83
2021/04/19 06:55:45;;;;;;;46.95;24.23;;;;;;;7.32;100.00;102142.63;6109182;23;20098;-84
2021/04/19 06:58:17;;;;;;;45.10;25.80;;;;;;;7.22;100.00;102128.72;6137747;23;20694;-87
2021/04/19 07:00:48;;;;;;;50.80;25.02;;;;;;;7.32;100.00;102143.50;6111604;23;20081;-86
2021/04/19 07:04:08;;;;;;;50.10;25.80;;;;;;;7.34;100.00;102144.38;6106385;23;20009;-88
2021/04/19 07:07:18;;;;;;;48.00;24.63;;;;;;;7.37;100.00;102146.97;6083224;23;20014;-86
2021/04/19 07:09:50;;;;;;;42.55;21.75;;;;;;;7.45;100.00;102147.75;6083171;23;20077;-87
2021/04/19 07:12:23;;;;;;;49.17;21.95;;;;;;;7.53;100.00;102148.56;6105633;23;20013;-81
2021/04/19 07:15:09;;;;;;;45.58;22.15;;;;;;;7.74;100.00;102139.53;6079107;23;20014;-86
2021/04/19 07:17:53;;;;;;;48.20;21.63;;;;;;;7.77;100.00;102118.44;6081384;23;20006;-85
2021/04/19 07:21:05;;;;;;;33.22;20.52;;;;;;;7.84;100.00;102116.63;6087178;23;19997;-86
2021/04/19 07:23:30;;;;;;;42.90;21.10;;;;;;;7.91;100.00;102099.84;6081245;23;20039;-84
2021/04/19 07:29:24;;;;;;;37.38;17.75;;;;;;;8.23;100.00;102111.69;6182188;23;20373;-86
2021/04/19 07:31:55;;;;;;;40.60;19.48;;;;;;;8.37;100.00;102122.91;6196008;23;20016;-85
2021/04/19 07:34:26;;;;;;;30.13;17.90;;;;;;;8.52;100.00;102125.31;6195010;23;20092;-81
2021/04/19 07:36:59;;;;;;;37.75;19.13;;;;;;;8.56;100.00;102121.75;6191117;23;20111;-81
2021/04/19 07:39:35;;;;;;;37.28;19.88;;;;;;;8.58;100.00;102121.72;6188902;23;20012;-80
2021/04/19 07:42:08;;;;;;;34.92;18.05;;;;;;;8.60;100.00;102125.22;6188893;23;20004;-80
2021/04/19 07:44:55;;;;;;;31.85;17.77;;;;;;;8.70;100.00;102128.56;6193320;23;20001;-83
2021/04/19 07:47:43;;;;;;;31.60;18.77;;;;;;;8.71;100.00;102123.28;6192295;23;20001;-83
2021/04/19 07:50:21;;;;;;;33.00;17.73;;;;;;;8.78;100.00;102124.91;6194499;23;20735;-81
2021/04/19 07:53:01;;;;;;;32.45;17.50;;;;;;;8.77;100.00;102123.16;6193121;23;20075;-82
2021/04/19 07:55:31;;;;;;;42.20;22.38;;;;;;;8.67;100.00;102113.66;6194172;23;20012;-82
2021/04/19 07:57:57;;;;;;;36.30;19.38;;;;;;;8.90;100.00;102110.66;6192778;23;20001;-81
2021/04/19 08:00:37;;;;;;;31.90;17.05;;;;;;;8.95;100.00;102121.13;6193200;23;20171;-82
2021/04/19 08:03:08;;;;;;;32.35;17.52;;;;;;;8.80;100.00;102112.59;6193075;23;20001;-82
2021/04/19 08:06:27;;;;;;;34.85;17.10;;;;;;;8.77;100.00;102114.38;6194418;23;20061;-84
2021/04/19 08:09:04;;;;;;;25.05;15.68;;;;;;;8.87;100.00;102121.25;6079426;23;20440;-82
2021/04/19 08:11:41;;;;;;;34.30;17.10;;;;;;;8.93;100.00;102123.78;6101804;23;20010;-81
2021/04/19 08:14:07;;;;;;;39.35;17.73;;;;;;;9.12;100.00;102116.41;6102748;23;20017;-82
2021/04/19 08:16:32;;;;;;;30.55;16.15;;;;;;;9.26;100.00;102129.34;6102662;23;20017;-81
2021/04/19 08:19:04;;;;;;;34.55;17.23;;;;;;;9.11;100.00;102127.88;6103261;23;20010;-83
2021/04/19 08:21:41;;;;;;;35.40;17.98;;;;;;;8.97;100.00;102121.97;6080817;23;20098;-83
2021/04/19 08:24:17;;;;;;;32.05;17.90;;;;;;;9.04;100.00;102128.88;6084007;23;20035;-82
2021/04/19 08:27:00;;;;;;;30.58;18.17;;;;;;;9.11;100.00;102127.88;6083798;23;20775;-83
2021/04/19 08:29:45;;;;;;;31.65;19.60;;;;;;;8.94;100.00;102129.94;6104465;23;20026;-82
2021/04/19 08:32:14;;;;;;;36.35;18.60;;;;;;;9.24;100.00;102125.88;6100755;23;20016;-83
2021/04/19 08:34:41;;;;;;;29.77;18.55;;;;;;;9.42;100.00;102124.66;6081911;23;20110;-81
2021/04/19 08:37:09;;;;;;;27.50;19.25;;;;;;;9.62;100.00;102124.28;6103813;23;20021;-81
2021/04/19 08:39:35;;;;;;;36.28;21.27;;;;;;;9.74;100.00;102122.28;6079223;23;20011;-80
2021/04/19 08:42:02;;;;;;;33.75;22.48;;;;;;;10.04;100.00;102128.66;6101068;23;20081;-78
2021/04/19 08:44:31;;;;;;;30.65;19.10;;;;;;;10.19;100.00;102135.38;6115912;23;20006;-79
2021/04/19 08:46:58;;;;;;;35.10;21.20;;;;;;;10.26;100.00;102126.44;6193680;23;20016;-80
2021/04/19 08:49:24;;;;;;;34.17;20.15;;;;;;;10.08;100.00;102122.41;6196624;23;20015;-81
2021/04/19 08:51:50;;;;;;;29.88;19.23;;;;;;;10.42;100.00;102118.16;6193335;23;20027;-80
2021/04/19 08:54:16;;;;;;;32.58;19.98;;;;;;;10.45;100.00;102121.59;6192654;23;20009;-80
2021/04/19 08:56:42;;;;;;;33.75;20.05;;;;;;;10.93;100.00;102118.66;6193766;23;20020;-81
2021/04/19 08:59:08;;;;;;;36.55;19.35;;;;;;;10.76;100.00;102118.22;6196787;23;20019;-81
2021/04/19 09:01:33;;;;;;;34.10;21.40;;;;;;;10.76;100.00;102121.72;6217866;23;19997;-80
2021/04/19 09:04:04;;;;;;;29.95;20.65;;;;;;;11.00;100.00;102114.97;6191766;23;20029;-81
2021/04/19 09:06:43;;;;;;;40.58;21.13;;;;;;;11.32;100.00;102122.03;6190841;23;20061;-80
2021/04/19 09:09:39;;;;;;;34.67;20.00;;;;;;;11.45;100.00;102119.06;6195688;23;20135;-83
2021/04/19 09:13:08;;;;;;;34.63;22.73;;;;;;;11.86;100.00;102113.47;6197910;23;20005;-86
2021/04/19 09:16:33;;;;;;;37.35;22.02;;;;;;;11.70;100.00;102119.22;6103652;23;20085;-83
2021/04/19 09:19:02;;;;;;;33.92;21.27;;;;;;;12.14;100.00;102115.28;6077473;23;20003;-81
2021/04/19 09:21:39;;;;;;;35.78;21.92;;;;;;;12.46;100.00;102114.28;6079007;23;20023;-83
2021/04/19 09:24:19;;;;;;;33.97;19.45;;;;;;;12.71;100.00;102106.41;6079057;23;20002;-83
2021/04/19 09:26:56;;;;;;;34.22;21.17;;;;;;;13.14;100.00;102110.22;6079687;23;20065;-82
2021/04/19 09:29:24;;;;;;;35.70;20.83;;;;;;;12.74;100.00;102108.94;6102611;23;20018;-82
2021/04/19 09:31:56;;;;;;;30.08;21.23;;;;;;;12.80;100.00;102116.72;6100642;23;20106;-82
2021/04/19 09:34:49;;;;;;;35.80;21.23;;;;;;;12.31;100.00;102118.28;6103096;23;20090;-83
2021/04/19 09:37:17;;;;;;;34.45;21.70;;;;;;;12.44;100.00;102113.44;6079231;23;20021;-82
2021/04/19 09:39:48;;;;;;;33.00;21.35;;;;;;;12.86;100.00;102111.19;6101814;23;20003;-81
2021/04/19 09:42:16;;;;;;;32.75;21.05;;;;;;;12.75;100.00;102115.09;6103936;23;20018;-83
2021/04/19 09:44:54;;;;;;;30.52;21.13;;;;;;;12.83;100.00;102121.91;6079790;23;20002;-82
2021/04/19 09:48:05;;;;;;;36.08;20.52;;;;;;;13.16;100.00;102114.56;6198901;23;20016;-80
2021/04/19 09:50:31;;;;;;;30.45;19.70;;;;;;;13.78;100.00;102115.91;6192519;23;20048;-84
2021/04/19 09:53:05;;;;;;;31.40;19.75;;;;;;;14.49;100.00;102108.72;6200005;23;20006;-83
2021/04/19 09:55:31;;;;;;;34.03;20.83;;;;;;;14.69;100.00;102111.41;6192530;23;19997;-83
2021/04/19 09:57:58;;;;;;;32.92;20.67;;;;;;;13.92;100.00;102096.78;6193570;23;20331;-84
2021/04/19 10:00:23;;;;;;;29.13;19.27;;;;;;;13.84;100.00;102112.13;6193467;23;20549;-83
2021/04/19 10:02:49;;;;;;;30.10;20.20;;;;;;;13.79;100.00;102103.47;6192716;23;20032;-84
2021/04/19 10:05:15;;;;;;;31.98;19.60;;;;;;;13.73;100.00;102105.44;6191580;23;20083;-83
2021/04/19 10:07:43;;;;;;;32.30;21.23;;;;;;;13.88;100.00;102108.44;6193561;23;20665;-83
2021/04/19 10:10:11;;;;;;;29.60;20.10;;;;;;;13.77;100.00;102092.91;6194652;23;20051;-82
2021/04/19 10:12:46;;;;;;;30.80;19.27;;;;;;;13.61;100.00;102089.97;6195957;23;20080;-83
2021/04/19 10:15:22;;;;;;;34.20;19.77;;;;;;;14.05;100.00;102084.72;6195227;23;20008;-83
2021/04/19 10:17:49;;;;;;;27.42;19.65;;;;;;;14.13;100.00;102095.94;6194323;23;20001;-83
2021/04/19 10:20:24;;;;;;;34.05;20.42;;;;;;;14.10;100.00;102092.53;6194055;23;20104;-83
2021/04/19 10:23:10;;;;;;;31.02;21.05;;;;;;;14.60;100.00;102102.94;6193505;23;20005;-82
2021/04/19 10:25:47;;;;;;;28.88;19.80;;;;;;;15.71;100.00;102086.56;6192507;23;20001;-83
2021/04/19 10:28:35;;;;;;;27.80;19.48;;;;;;;16.63;100.00;102092.84;6193135;23;20009;-83
2021/04/19 10:31:16;;;;;;;32.03;19.33;;;;;;;17.24;100.00;102090.59;6190784;23;20021;-83
2021/04/19 10:33:44;;;;;;;27.40;19.90;;;;;;;17.82;100.00;102095.53;6191616;23;20036;-83
2021/04/19 10:36:10;;;;;;;32.72;20.52;;;;;;;18.16;100.00;102082.06;6191625;23;20015;-82
2021/04/19 10:38:36;;;;;;;32.50;18.77;;;;;;;19.69;100.00;102083.69;6191876;23;20001;-81
2021/04/19 10:41:05;;;;;;;28.08;20.48;;;;;;;19.15;100.00;102087.81;6194130;23;20005;-83
2021/04/19 10:43:31;;;;;;;35.35;19.95;;;;;;;17.40;100.00;102084.44;6192140;23;20098;-82
2021/04/19 10:45:56;;;;;;;28.05;19.88;;;;;;;18.99;100.00;102080.81;6193472;23;20001;-82
2021/04/19 10:48:24;;;;;;;27.00;18.88;;;;;;;20.47;100.00;102068.75;6191734;23;20001;-83
2021/04/19 10:50:58;;;;;;;30.20;18.42;;;;;;;21.00;88.12;102075.00;6194219;23;20443;-83
2021/04/19 10:53:38;;;;;;;28.05;17.77;;;;;;;21.31;85.44;102070.19;6192259;23;20028;-83
2021/04/19 10:56:05;;;;;;;27.25;18.02;;;;;;;20.93;80.92;102071.00;6189920;23;20063;-82
2021/04/19 10:58:32;;;;;;;29.48;17.40;;;;;;;21.25;80.67;102073.28;6195965;23;20016;-83
2021/04/19 11:00:58;;;;;;;25.17;18.20;;;;;;;21.06;79.23;102063.81;6193017;23;19997;-82
2021/04/19 11:03:32;;;;;;;20.02;14.05;;;;;;;20.04;81.31;102059.94;6195021;23;20001;-83
2021/04/19 11:06:10;;;;;;;21.90;15.48;;;;;;;17.87;89.25;102076.53;6195446;23;20016;-82
2021/04/19 11:09:01;;;;;;;24.75;17.85;;;;;;;17.78;90.11;102072.56;6196353;23;20005;-82
2021/04/19 11:11:36;;;;;;;25.25;16.10;;;;;;;17.27;91.51;102058.38;6195127;23;20075;-84
2021/04/19 11:14:09;;;;;;;18.50;14.30;;;;;;;17.40;90.78;102061.25;6195587;23;20135;-83
2021/04/19 11:16:35;;;;;;;23.02;14.60;;;;;;;16.84;93.79;102067.75;6195673;23;19997;-83
2021/04/19 11:19:01;;;;;;;23.58;15.07;;;;;;;16.36;95.08;102065.72;6194724;23;20024;-83
2021/04/19 11:21:27;;;;;;;23.42;15.70;;;;;;;16.18;96.11;102065.69;6195596;23;20055;-82
2021/04/19 11:24:13;;;;;;;20.45;15.45;;;;;;;15.83;97.02;102062.03;6192169;23;20024;-83
2021/04/19 11:26:42;;;;;;;;;;;;;;;15.58;98.40;102072.94;6211534;23;20009;-84
2021/04/19 11:29:08;;;;;;;23.70;14.82;;;;;;;15.31;99.87;102075.03;6154937;23;839624;-83
2021/04/19 11:31:43;;;;;;;20.33;14.20;;;;;;;15.11;100.00;102073.28;6189975;23;20051;-83
2021/04/19 11:34:17;;;;;;;21.77;13.00;;;;;;;14.58;100.00;102076.41;6189093;23;20005;-83
2021/04/19 11:36:46;;;;;;;17.67;12.05;;;;;;;14.61;100.00;102073.66;6190762;23;20009;-83